sensor_id;sensor_type;location;lat;lon;timestamp;P1;durP1;ratioP1;P2;durP2;ratioP2
35891;SDS011;21993;42.672;23.296;2023-01-15T00:00:13;20.97;;;10.80;;
35891;SDS011;21993;42.672;23.296;2023-01-15T00:02:39;20.73;;;10.83;;
35891;SDS011;21993;42.672;23.296;2023-01-15T00:05:04;21.90;;;10.83;;
35891;SDS011;21993;42.672;23.296;2023-01-15T00:07:30;17.60;;;10.23;;
35891;SDS011;21993;42.672;23.296;2023-01-15T00:09:56;17.57;;;9.77;;
35891;SDS011;21993;42.672;23.296;2023-01-15T00:12:21;22.57;;;10.33;;
35891;SDS011;21993;42.672;23.296;2023-01-15T00:14:47;20.30;;;10.67;;
35891;SDS011;21993;42.672;23.296;2023-01-15T00:17:12;23.27;;;10.10;;
35891;SDS011;21993;42.672;23.296;2023-01-15T00:19:38;22.43;;;10.87;;
35891;SDS011;21993;42.672;23.296;2023-01-15T00:22:03;18.53;;;9.60;;
35891;SDS011;21993;42.672;23.296;2023-01-15T00:24:29;17.37;;;10.03;;
35891;SDS011;21993;42.672;23.296;2023-01-15T00:27:13;19.63;;;9.77;;
35891;SDS011;21993;42.672;23.296;2023-01-15T00:29:57;19.50;;;10.47;;
35891;SDS011;21993;42.672;23.296;2023-01-15T00:32:22;18.13;;;8.87;;
35891;SDS011;21993;42.672;23.296;2023-01-15T00:34:51;18.40;;;10.27;;
35891;SDS011;21993;42.672;23.296;2023-01-15T00:37:16;19.20;;;10.40;;
35891;SDS011;21993;42.672;23.296;2023-01-15T00:39:41;18.83;;;10.53;;
35891;SDS011;21993;42.672;23.296;2023-01-15T00:42:07;18.97;;;10.53;;
35891;SDS011;21993;42.672;23.296;2023-01-15T00:44:33;17.23;;;9.97;;
35891;SDS011;21993;42.672;23.296;2023-01-15T00:47:00;22.93;;;11.67;;
35891;SDS011;21993;42.672;23.296;2023-01-15T00:49:26;18.07;;;9.77;;
35891;SDS011;21993;42.672;23.296;2023-01-15T00:51:51;16.23;;;9.43;;
35891;SDS011;21993;42.672;23.296;2023-01-15T00:54:16;20.93;;;10.37;;
35891;SDS011;21993;42.672;23.296;2023-01-15T00:56:42;16.53;;;10.20;;
35891;SDS011;21993;42.672;23.296;2023-01-15T00:59:07;18.37;;;9.13;;
35891;SDS011;21993;42.672;23.296;2023-01-15T01:01:33;19.67;;;10.90;;
35891;SDS011;21993;42.672;23.296;2023-01-15T01:03:58;17.80;;;9.50;;
35891;SDS011;21993;42.672;23.296;2023-01-15T01:06:24;20.37;;;11.00;;
35891;SDS011;21993;42.672;23.296;2023-01-15T01:08:50;18.03;;;10.80;;
35891;SDS011;21993;42.672;23.296;2023-01-15T01:11:17;20.87;;;11.20;;
35891;SDS011;21993;42.672;23.296;2023-01-15T01:13:44;20.77;;;10.80;;
35891;SDS011;21993;42.672;23.296;2023-01-15T01:16:24;18.17;;;10.37;;
35891;SDS011;21993;42.672;23.296;2023-01-15T01:18:50;17.27;;;10.23;;
35891;SDS011;21993;42.672;23.296;2023-01-15T01:21:16;16.47;;;10.03;;
35891;SDS011;21993;42.672;23.296;2023-01-15T01:23:42;22.47;;;9.90;;
35891;SDS011;21993;42.672;23.296;2023-01-15T01:26:07;23.17;;;10.80;;
35891;SDS011;21993;42.672;23.296;2023-01-15T01:28:33;18.67;;;9.73;;
35891;SDS011;21993;42.672;23.296;2023-01-15T01:30:59;21.00;;;10.33;;
35891;SDS011;21993;42.672;23.296;2023-01-15T01:33:24;18.20;;;9.83;;
35891;SDS011;21993;42.672;23.296;2023-01-15T01:35:50;23.13;;;11.57;;
35891;SDS011;21993;42.672;23.296;2023-01-15T01:38:15;21.23;;;9.53;;
35891;SDS011;21993;42.672;23.296;2023-01-15T01:40:41;21.40;;;10.60;;
35891;SDS011;21993;42.672;23.296;2023-01-15T01:43:20;16.73;;;10.07;;
35891;SDS011;21993;42.672;23.296;2023-01-15T01:45:47;22.17;;;11.93;;
35891;SDS011;21993;42.672;23.296;2023-01-15T01:48:13;19.63;;;11.03;;
35891;SDS011;21993;42.672;23.296;2023-01-15T01:50:41;19.63;;;9.87;;
35891;SDS011;21993;42.672;23.296;2023-01-15T01:53:10;17.47;;;10.37;;
35891;SDS011;21993;42.672;23.296;2023-01-15T01:55:41;17.47;;;9.80;;
35891;SDS011;21993;42.672;23.296;2023-01-15T01:58:07;17.37;;;10.53;;
35891;SDS011;21993;42.672;23.296;2023-01-15T02:00:35;20.37;;;10.67;;
35891;SDS011;21993;42.672;23.296;2023-01-15T02:03:03;18.97;;;10.93;;
35891;SDS011;21993;42.672;23.296;2023-01-15T02:05:32;18.63;;;10.97;;
35891;SDS011;21993;42.672;23.296;2023-01-15T02:08:02;21.53;;;11.83;;
35891;SDS011;21993;42.672;23.296;2023-01-15T02:10:29;24.07;;;10.87;;
35891;SDS011;21993;42.672;23.296;2023-01-15T02:12:57;23.40;;;11.77;;
35891;SDS011;21993;42.672;23.296;2023-01-15T02:15:30;21.63;;;11.90;;
35891;SDS011;21993;42.672;23.296;2023-01-15T02:18:01;19.10;;;10.93;;
35891;SDS011;21993;42.672;23.296;2023-01-15T02:20:52;22.63;;;10.93;;
35891;SDS011;21993;42.672;23.296;2023-01-15T02:28:48;22.50;;;11.60;;
35891;SDS011;21993;42.672;23.296;2023-01-15T02:36:40;24.13;;;11.93;;
35891;SDS011;21993;42.672;23.296;2023-01-15T02:39:10;21.50;;;11.93;;
35891;SDS011;21993;42.672;23.296;2023-01-15T02:41:40;21.73;;;11.57;;
35891;SDS011;21993;42.672;23.296;2023-01-15T02:44:13;25.33;;;11.77;;
35891;SDS011;21993;42.672;23.296;2023-01-15T02:46:42;19.80;;;12.47;;
35891;SDS011;21993;42.672;23.296;2023-01-15T02:49:10;25.70;;;12.77;;
35891;SDS011;21993;42.672;23.296;2023-01-15T02:51:53;27.63;;;13.37;;
35891;SDS011;21993;42.672;23.296;2023-01-15T02:54:25;21.93;;;12.47;;
35891;SDS011;21993;42.672;23.296;2023-01-15T02:56:55;27.17;;;13.50;;
35891;SDS011;21993;42.672;23.296;2023-01-15T02:59:24;24.83;;;12.33;;
35891;SDS011;21993;42.672;23.296;2023-01-15T03:01:59;23.53;;;12.33;;
35891;SDS011;21993;42.672;23.296;2023-01-15T03:07:40;25.20;;;13.47;;
35891;SDS011;21993;42.672;23.296;2023-01-15T03:09:49;20.17;;;11.07;;
35891;SDS011;21993;42.672;23.296;2023-01-15T03:12:34;23.30;;;12.17;;
35891;SDS011;21993;42.672;23.296;2023-01-15T03:15:21;20.97;;;11.70;;
35891;SDS011;21993;42.672;23.296;2023-01-15T03:18:10;22.20;;;12.27;;
35891;SDS011;21993;42.672;23.296;2023-01-15T03:20:40;26.17;;;12.33;;
35891;SDS011;21993;42.672;23.296;2023-01-15T03:23:10;25.33;;;13.60;;
35891;SDS011;21993;42.672;23.296;2023-01-15T03:25:41;21.67;;;11.13;;
35891;SDS011;21993;42.672;23.296;2023-01-15T03:28:10;21.77;;;11.50;;
35891;SDS011;21993;42.672;23.296;2023-01-15T03:30:38;23.17;;;11.77;;
35891;SDS011;21993;42.672;23.296;2023-01-15T03:33:03;18.83;;;10.97;;
35891;SDS011;21993;42.672;23.296;2023-01-15T03:38:18;18.57;;;11.07;;
35891;SDS011;21993;42.672;23.296;2023-01-15T03:40:52;16.30;;;10.30;;
35891;SDS011;21993;42.672;23.296;2023-01-15T03:43:23;15.53;;;8.77;;
35891;SDS011;21993;42.672;23.296;2023-01-15T03:46:08;19.87;;;9.93;;
35891;SDS011;21993;42.672;23.296;2023-01-15T03:48:56;19.57;;;10.53;;
35891;SDS011;21993;42.672;23.296;2023-01-15T04:02:58;15.27;;;9.43;;
35891;SDS011;21993;42.672;23.296;2023-01-15T04:05:27;18.20;;;9.67;;
35891;SDS011;21993;42.672;23.296;2023-01-15T04:07:55;15.97;;;9.63;;
35891;SDS011;21993;42.672;23.296;2023-01-15T04:10:22;16.67;;;9.13;;
35891;SDS011;21993;42.672;23.296;2023-01-15T04:12:48;15.70;;;9.33;;
35891;SDS011;21993;42.672;23.296;2023-01-15T04:15:14;17.47;;;9.70;;
35891;SDS011;21993;42.672;23.296;2023-01-15T04:17:40;16.70;;;9.13;;
35891;SDS011;21993;42.672;23.296;2023-01-15T04:20:06;14.40;;;8.40;;
35891;SDS011;21993;42.672;23.296;2023-01-15T04:22:32;14.20;;;7.97;;
35891;SDS011;21993;42.672;23.296;2023-01-15T04:24:57;15.20;;;8.00;;
35891;SDS011;21993;42.672;23.296;2023-01-15T04:27:23;13.50;;;7.87;;
35891;SDS011;21993;42.672;23.296;2023-01-15T04:29:48;17.33;;;8.37;;
35891;SDS011;21993;42.672;23.296;2023-01-15T04:32:14;17.30;;;8.07;;
35891;SDS011;21993;42.672;23.296;2023-01-15T04:34:39;17.27;;;8.67;;
35891;SDS011;21993;42.672;23.296;2023-01-15T04:37:05;20.27;;;8.33;;
35891;SDS011;21993;42.672;23.296;2023-01-15T04:39:31;17.10;;;8.50;;
35891;SDS011;21993;42.672;23.296;2023-01-15T04:41:56;15.10;;;8.67;;
35891;SDS011;21993;42.672;23.296;2023-01-15T04:44:54;16.10;;;10.13;;
35891;SDS011;21993;42.672;23.296;2023-01-15T04:47:20;16.40;;;9.67;;
35891;SDS011;21993;42.672;23.296;2023-01-15T04:49:45;16.87;;;9.07;;
35891;SDS011;21993;42.672;23.296;2023-01-15T04:52:11;17.00;;;8.37;;
35891;SDS011;21993;42.672;23.296;2023-01-15T04:54:36;22.60;;;9.70;;
35891;SDS011;21993;42.672;23.296;2023-01-15T04:57:03;18.23;;;9.63;;
35891;SDS011;21993;42.672;23.296;2023-01-15T04:59:28;19.90;;;11.17;;
35891;SDS011;21993;42.672;23.296;2023-01-15T05:01:54;22.80;;;10.80;;
35891;SDS011;21993;42.672;23.296;2023-01-15T05:04:20;20.00;;;10.20;;
35891;SDS011;21993;42.672;23.296;2023-01-15T05:06:46;25.70;;;10.70;;
35891;SDS011;21993;42.672;23.296;2023-01-15T05:09:11;22.20;;;11.00;;
35891;SDS011;21993;42.672;23.296;2023-01-15T05:11:37;18.50;;;10.17;;
35891;SDS011;21993;42.672;23.296;2023-01-15T05:14:04;25.67;;;12.00;;
35891;SDS011;21993;42.672;23.296;2023-01-15T05:16:31;21.63;;;11.40;;
35891;SDS011;21993;42.672;23.296;2023-01-15T05:18:58;20.20;;;10.17;;
35891;SDS011;21993;42.672;23.296;2023-01-15T05:21:27;21.67;;;10.40;;
35891;SDS011;21993;42.672;23.296;2023-01-15T05:23:56;19.60;;;10.87;;
35891;SDS011;21993;42.672;23.296;2023-01-15T05:26:22;17.90;;;11.03;;
35891;SDS011;21993;42.672;23.296;2023-01-15T05:28:51;17.70;;;10.13;;
35891;SDS011;21993;42.672;23.296;2023-01-15T05:31:18;20.23;;;10.67;;
35891;SDS011;21993;42.672;23.296;2023-01-15T05:33:44;20.77;;;10.03;;
35891;SDS011;21993;42.672;23.296;2023-01-15T05:36:19;19.80;;;10.37;;
35891;SDS011;21993;42.672;23.296;2023-01-15T05:38:49;20.00;;;10.60;;
35891;SDS011;21993;42.672;23.296;2023-01-15T05:41:16;20.30;;;10.73;;
35891;SDS011;21993;42.672;23.296;2023-01-15T05:44:03;20.60;;;11.17;;
35891;SDS011;21993;42.672;23.296;2023-01-15T05:46:31;20.30;;;10.40;;
35891;SDS011;21993;42.672;23.296;2023-01-15T05:48:58;27.93;;;12.50;;
35891;SDS011;21993;42.672;23.296;2023-01-15T05:51:27;21.83;;;11.57;;
35891;SDS011;21993;42.672;23.296;2023-01-15T05:53:54;24.57;;;12.23;;
35891;SDS011;21993;42.672;23.296;2023-01-15T05:56:20;22.43;;;12.77;;
35891;SDS011;21993;42.672;23.296;2023-01-15T05:58:46;20.53;;;11.13;;
35891;SDS011;21993;42.672;23.296;2023-01-15T06:01:11;19.93;;;10.90;;
35891;SDS011;21993;42.672;23.296;2023-01-15T06:03:37;21.33;;;11.90;;
35891;SDS011;21993;42.672;23.296;2023-01-15T06:06:02;21.80;;;10.87;;
35891;SDS011;21993;42.672;23.296;2023-01-15T06:08:29;19.10;;;10.20;;
35891;SDS011;21993;42.672;23.296;2023-01-15T06:10:54;22.63;;;11.50;;
35891;SDS011;21993;42.672;23.296;2023-01-15T06:13:20;22.07;;;11.53;;
35891;SDS011;21993;42.672;23.296;2023-01-15T06:15:46;20.87;;;9.53;;
35891;SDS011;21993;42.672;23.296;2023-01-15T06:18:11;20.23;;;10.80;;
35891;SDS011;21993;42.672;23.296;2023-01-15T06:20:37;20.10;;;10.03;;
35891;SDS011;21993;42.672;23.296;2023-01-15T06:23:04;24.10;;;11.23;;
35891;SDS011;21993;42.672;23.296;2023-01-15T06:25:31;20.97;;;11.83;;
35891;SDS011;21993;42.672;23.296;2023-01-15T06:27:59;26.53;;;12.27;;
35891;SDS011;21993;42.672;23.296;2023-01-15T06:30:24;21.37;;;10.93;;
35891;SDS011;21993;42.672;23.296;2023-01-15T06:32:50;22.23;;;11.60;;
35891;SDS011;21993;42.672;23.296;2023-01-15T06:35:15;21.97;;;11.90;;
35891;SDS011;21993;42.672;23.296;2023-01-15T06:37:41;19.57;;;11.37;;
35891;SDS011;21993;42.672;23.296;2023-01-15T06:40:06;22.43;;;11.80;;
35891;SDS011;21993;42.672;23.296;2023-01-15T06:42:33;25.53;;;11.40;;
35891;SDS011;21993;42.672;23.296;2023-01-15T06:45:16;21.87;;;11.57;;
35891;SDS011;21993;42.672;23.296;2023-01-15T06:48:00;20.93;;;11.57;;
35891;SDS011;21993;42.672;23.296;2023-01-15T06:50:26;25.20;;;11.47;;
35891;SDS011;21993;42.672;23.296;2023-01-15T06:52:51;23.13;;;11.47;;
35891;SDS011;21993;42.672;23.296;2023-01-15T06:55:16;17.87;;;12.17;;
35891;SDS011;21993;42.672;23.296;2023-01-15T06:57:43;25.50;;;12.07;;
35891;SDS011;21993;42.672;23.296;2023-01-15T07:00:09;21.70;;;11.23;;
35891;SDS011;21993;42.672;23.296;2023-01-15T07:02:36;25.93;;;11.50;;
35891;SDS011;21993;42.672;23.296;2023-01-15T07:05:02;25.03;;;12.40;;
35891;SDS011;21993;42.672;23.296;2023-01-15T07:07:28;23.70;;;12.60;;
35891;SDS011;21993;42.672;23.296;2023-01-15T07:09:53;17.53;;;10.60;;
35891;SDS011;21993;42.672;23.296;2023-01-15T07:12:19;22.40;;;11.80;;
35891;SDS011;21993;42.672;23.296;2023-01-15T07:14:45;22.20;;;11.53;;
35891;SDS011;21993;42.672;23.296;2023-01-15T07:17:10;24.23;;;12.60;;
35891;SDS011;21993;42.672;23.296;2023-01-15T07:19:36;23.33;;;11.60;;
35891;SDS011;21993;42.672;23.296;2023-01-15T07:22:02;23.47;;;11.83;;
35891;SDS011;21993;42.672;23.296;2023-01-15T07:24:28;22.70;;;12.43;;
35891;SDS011;21993;42.672;23.296;2023-01-15T07:26:53;23.13;;;12.93;;
35891;SDS011;21993;42.672;23.296;2023-01-15T07:29:19;23.20;;;12.30;;
35891;SDS011;21993;42.672;23.296;2023-01-15T07:31:45;22.30;;;11.37;;
35891;SDS011;21993;42.672;23.296;2023-01-15T07:34:10;19.33;;;11.07;;
35891;SDS011;21993;42.672;23.296;2023-01-15T07:36:36;20.00;;;11.60;;
35891;SDS011;21993;42.672;23.296;2023-01-15T07:39:06;25.57;;;12.70;;
35891;SDS011;21993;42.672;23.296;2023-01-15T07:41:32;24.20;;;11.70;;
35891;SDS011;21993;42.672;23.296;2023-01-15T07:44:16;24.03;;;12.70;;
35891;SDS011;21993;42.672;23.296;2023-01-15T07:47:00;24.50;;;13.70;;
35891;SDS011;21993;42.672;23.296;2023-01-15T07:49:45;28.27;;;12.60;;
35891;SDS011;21993;42.672;23.296;2023-01-15T07:52:14;23.17;;;11.37;;
35891;SDS011;21993;42.672;23.296;2023-01-15T07:54:45;23.97;;;11.60;;
35891;SDS011;21993;42.672;23.296;2023-01-15T07:57:11;20.90;;;11.43;;
35891;SDS011;21993;42.672;23.296;2023-01-15T07:59:40;20.27;;;10.30;;
35891;SDS011;21993;42.672;23.296;2023-01-15T08:02:06;18.63;;;10.13;;
35891;SDS011;21993;42.672;23.296;2023-01-15T08:04:31;15.17;;;9.30;;
35891;SDS011;21993;42.672;23.296;2023-01-15T08:07:00;17.40;;;10.93;;
35891;SDS011;21993;42.672;23.296;2023-01-15T08:09:27;21.03;;;10.60;;
35891;SDS011;21993;42.672;23.296;2023-01-15T08:11:52;22.33;;;10.40;;
35891;SDS011;21993;42.672;23.296;2023-01-15T08:14:36;18.73;;;10.67;;
35891;SDS011;21993;42.672;23.296;2023-01-15T08:17:21;18.53;;;10.53;;
35891;SDS011;21993;42.672;23.296;2023-01-15T08:19:46;18.20;;;10.00;;
35891;SDS011;21993;42.672;23.296;2023-01-15T08:22:11;19.60;;;10.43;;
35891;SDS011;21993;42.672;23.296;2023-01-15T08:24:37;18.30;;;9.93;;
35891;SDS011;21993;42.672;23.296;2023-01-15T08:27:03;17.80;;;9.83;;
35891;SDS011;21993;42.672;23.296;2023-01-15T08:29:28;14.33;;;8.47;;
35891;SDS011;21993;42.672;23.296;2023-01-15T08:31:54;16.90;;;8.77;;
35891;SDS011;21993;42.672;23.296;2023-01-15T08:34:19;17.90;;;9.33;;
35891;SDS011;21993;42.672;23.296;2023-01-15T08:36:45;17.57;;;9.33;;
35891;SDS011;21993;42.672;23.296;2023-01-15T08:39:10;15.77;;;9.10;;
35891;SDS011;21993;42.672;23.296;2023-01-15T08:41:36;16.80;;;9.67;;
35891;SDS011;21993;42.672;23.296;2023-01-15T08:44:01;18.30;;;10.00;;
35891;SDS011;21993;42.672;23.296;2023-01-15T08:46:27;23.10;;;11.07;;
35891;SDS011;21993;42.672;23.296;2023-01-15T08:48:52;18.67;;;10.30;;
35891;SDS011;21993;42.672;23.296;2023-01-15T08:51:18;16.03;;;9.67;;
35891;SDS011;21993;42.672;23.296;2023-01-15T08:53:44;16.00;;;10.50;;
35891;SDS011;21993;42.672;23.296;2023-01-15T08:56:13;18.07;;;9.53;;
35891;SDS011;21993;42.672;23.296;2023-01-15T08:58:43;15.87;;;9.20;;
35891;SDS011;21993;42.672;23.296;2023-01-15T09:01:09;16.40;;;9.00;;
35891;SDS011;21993;42.672;23.296;2023-01-15T09:03:39;14.83;;;8.83;;
35891;SDS011;21993;42.672;23.296;2023-01-15T09:06:07;15.63;;;9.00;;
35891;SDS011;21993;42.672;23.296;2023-01-15T09:08:35;19.47;;;9.03;;
35891;SDS011;21993;42.672;23.296;2023-01-15T09:11:01;14.97;;;8.03;;
35891;SDS011;21993;42.672;23.296;2023-01-15T09:13:28;17.23;;;9.43;;
35891;SDS011;21993;42.672;23.296;2023-01-15T09:15:58;15.37;;;9.27;;
35891;SDS011;21993;42.672;23.296;2023-01-15T09:18:27;14.27;;;9.47;;
35891;SDS011;21993;42.672;23.296;2023-01-15T09:20:53;15.03;;;8.50;;
35891;SDS011;21993;42.672;23.296;2023-01-15T09:23:18;16.23;;;9.23;;
35891;SDS011;21993;42.672;23.296;2023-01-15T09:25:54;15.03;;;9.47;;
35891;SDS011;21993;42.672;23.296;2023-01-15T09:28:21;18.57;;;10.23;;
35891;SDS011;21993;42.672;23.296;2023-01-15T09:30:46;19.03;;;9.83;;
35891;SDS011;21993;42.672;23.296;2023-01-15T09:33:12;16.27;;;10.00;;
35891;SDS011;21993;42.672;23.296;2023-01-15T09:35:38;15.57;;;9.80;;
35891;SDS011;21993;42.672;23.296;2023-01-15T09:38:04;15.13;;;8.67;;
35891;SDS011;21993;42.672;23.296;2023-01-15T09:40:39;18.13;;;9.40;;
35891;SDS011;21993;42.672;23.296;2023-01-15T09:43:09;15.77;;;9.70;;
35891;SDS011;21993;42.672;23.296;2023-01-15T09:45:53;18.00;;;9.57;;
35891;SDS011;21993;42.672;23.296;2023-01-15T09:48:47;14.80;;;9.03;;
35891;SDS011;21993;42.672;23.296;2023-01-15T09:51:32;14.00;;;9.20;;
35891;SDS011;21993;42.672;23.296;2023-01-15T09:57:15;17.43;;;9.70;;
35891;SDS011;21993;42.672;23.296;2023-01-15T09:59:44;15.13;;;9.27;;
35891;SDS011;21993;42.672;23.296;2023-01-15T10:02:24;15.40;;;8.63;;
35891;SDS011;21993;42.672;23.296;2023-01-15T10:05:03;18.00;;;9.63;;
35891;SDS011;21993;42.672;23.296;2023-01-15T10:07:40;16.77;;;9.47;;
35891;SDS011;21993;42.672;23.296;2023-01-15T10:10:36;21.97;;;10.73;;
35891;SDS011;21993;42.672;23.296;2023-01-15T10:16:03;22.63;;;11.70;;
35891;SDS011;21993;42.672;23.296;2023-01-15T10:18:29;19.83;;;10.93;;
35891;SDS011;21993;42.672;23.296;2023-01-15T10:31:52;20.50;;;12.60;;
35891;SDS011;21993;42.672;23.296;2023-01-15T10:37:10;19.90;;;12.30;;
35891;SDS011;21993;42.672;23.296;2023-01-15T10:47:50;19.97;;;11.20;;
35891;SDS011;21993;42.672;23.296;2023-01-15T10:50:23;21.93;;;11.50;;
35891;SDS011;21993;42.672;23.296;2023-01-15T10:58:44;16.90;;;9.47;;
35891;SDS011;21993;42.672;23.296;2023-01-15T11:01:17;20.93;;;10.67;;
35891;SDS011;21993;42.672;23.296;2023-01-15T11:03:47;20.10;;;9.97;;
35891;SDS011;21993;42.672;23.296;2023-01-15T11:06:14;21.20;;;11.70;;
35891;SDS011;21993;42.672;23.296;2023-01-15T11:08:42;17.13;;;10.30;;
35891;SDS011;21993;42.672;23.296;2023-01-15T11:11:18;22.67;;;11.00;;
35891;SDS011;21993;42.672;23.296;2023-01-15T11:14:07;21.23;;;10.90;;
35891;SDS011;21993;42.672;23.296;2023-01-15T11:16:51;18.40;;;9.73;;
35891;SDS011;21993;42.672;23.296;2023-01-15T11:19:36;17.17;;;9.40;;
35891;SDS011;21993;42.672;23.296;2023-01-15T11:27:31;20.10;;;11.60;;
35891;SDS011;21993;42.672;23.296;2023-01-15T11:29:59;19.07;;;9.70;;
35891;SDS011;21993;42.672;23.296;2023-01-15T11:35:02;18.80;;;10.20;;
35891;SDS011;21993;42.672;23.296;2023-01-15T11:37:40;19.47;;;11.37;;
35891;SDS011;21993;42.672;23.296;2023-01-15T11:40:15;19.83;;;11.77;;
35891;SDS011;21993;42.672;23.296;2023-01-15T11:42:48;18.93;;;10.93;;
35891;SDS011;21993;42.672;23.296;2023-01-15T11:45:33;18.03;;;11.40;;
35891;SDS011;21993;42.672;23.296;2023-01-15T11:48:18;18.33;;;11.93;;
35891;SDS011;21993;42.672;23.296;2023-01-15T11:51:05;20.23;;;11.83;;
35891;SDS011;21993;42.672;23.296;2023-01-15T11:53:32;20.60;;;12.27;;
35891;SDS011;21993;42.672;23.296;2023-01-15T11:56:03;19.30;;;11.27;;
35891;SDS011;21993;42.672;23.296;2023-01-15T11:58:41;22.77;;;12.60;;
35891;SDS011;21993;42.672;23.296;2023-01-15T12:01:10;22.00;;;12.67;;
35891;SDS011;21993;42.672;23.296;2023-01-15T12:03:40;20.57;;;12.47;;
35891;SDS011;21993;42.672;23.296;2023-01-15T12:06:06;17.90;;;10.33;;
35891;SDS011;21993;42.672;23.296;2023-01-15T12:11:27;21.50;;;9.57;;
35891;SDS011;21993;42.672;23.296;2023-01-15T12:24:40;15.13;;;9.23;;
35891;SDS011;21993;42.672;23.296;2023-01-15T12:33:41;10.27;;;7.50;;
35891;SDS011;21993;42.672;23.296;2023-01-15T12:39:14;12.27;;;7.83;;
35891;SDS011;21993;42.672;23.296;2023-01-15T12:42:06;11.73;;;8.33;;
35891;SDS011;21993;42.672;23.296;2023-01-15T12:44:54;13.57;;;8.47;;
35891;SDS011;21993;42.672;23.296;2023-01-15T12:49:58;15.40;;;8.90;;
35891;SDS011;21993;42.672;23.296;2023-01-15T12:52:33;11.10;;;7.80;;
35891;SDS011;21993;42.672;23.296;2023-01-15T12:57:50;10.60;;;7.27;;
35891;SDS011;21993;42.672;23.296;2023-01-15T13:00:24;13.23;;;7.57;;
35891;SDS011;21993;42.672;23.296;2023-01-15T13:05:55;14.80;;;8.23;;
35891;SDS011;21993;42.672;23.296;2023-01-15T13:08:26;11.70;;;8.10;;
35891;SDS011;21993;42.672;23.296;2023-01-15T13:11:01;13.80;;;8.03;;
35891;SDS011;21993;42.672;23.296;2023-01-15T13:13:28;12.47;;;8.40;;
35891;SDS011;21993;42.672;23.296;2023-01-15T13:21:09;10.73;;;8.20;;
35891;SDS011;21993;42.672;23.296;2023-01-15T13:34:24;12.93;;;8.97;;
35891;SDS011;21993;42.672;23.296;2023-01-15T13:36:54;10.70;;;7.27;;
35891;SDS011;21993;42.672;23.296;2023-01-15T13:39:31;11.93;;;7.43;;
35891;SDS011;21993;42.672;23.296;2023-01-15T13:42:03;12.50;;;8.40;;
35891;SDS011;21993;42.672;23.296;2023-01-15T13:44:48;14.40;;;8.53;;
35891;SDS011;21993;42.672;23.296;2023-01-15T13:47:21;14.77;;;8.03;;
35891;SDS011;21993;42.672;23.296;2023-01-15T13:49:53;10.97;;;7.10;;
35891;SDS011;21993;42.672;23.296;2023-01-15T13:54:54;16.93;;;9.13;;
35891;SDS011;21993;42.672;23.296;2023-01-15T13:57:34;13.77;;;8.70;;
35891;SDS011;21993;42.672;23.296;2023-01-15T14:00:03;14.97;;;9.73;;
35891;SDS011;21993;42.672;23.296;2023-01-15T14:02:30;15.50;;;9.20;;
35891;SDS011;21993;42.672;23.296;2023-01-15T14:04:59;16.53;;;8.53;;
35891;SDS011;21993;42.672;23.296;2023-01-15T14:07:33;15.03;;;7.93;;
35891;SDS011;21993;42.672;23.296;2023-01-15T14:10:07;19.97;;;9.27;;
35891;SDS011;21993;42.672;23.296;2023-01-15T14:15:12;16.33;;;8.80;;
35891;SDS011;21993;42.672;23.296;2023-01-15T14:20:54;16.97;;;8.20;;
35891;SDS011;21993;42.672;23.296;2023-01-15T14:26:40;15.07;;;9.17;;
35891;SDS011;21993;42.672;23.296;2023-01-15T14:32:11;13.10;;;8.33;;
35891;SDS011;21993;42.672;23.296;2023-01-15T14:34:41;14.97;;;8.53;;
35891;SDS011;21993;42.672;23.296;2023-01-15T14:39:48;13.30;;;8.07;;
35891;SDS011;21993;42.672;23.296;2023-01-15T14:45:05;15.77;;;8.63;;
35891;SDS011;21993;42.672;23.296;2023-01-15T15:01:34;14.20;;;8.80;;
35891;SDS011;21993;42.672;23.296;2023-01-15T15:04:09;17.50;;;9.23;;
35891;SDS011;21993;42.672;23.296;2023-01-15T15:06:55;14.77;;;8.70;;
35891;SDS011;21993;42.672;23.296;2023-01-15T15:09:28;20.67;;;10.13;;
35891;SDS011;21993;42.672;23.296;2023-01-15T15:20:57;15.80;;;9.43;;
35891;SDS011;21993;42.672;23.296;2023-01-15T15:26:03;20.70;;;10.70;;
35891;SDS011;21993;42.672;23.296;2023-01-15T15:28:30;18.53;;;11.10;;
35891;SDS011;21993;42.672;23.296;2023-01-15T15:30:56;19.40;;;10.60;;
35891;SDS011;21993;42.672;23.296;2023-01-15T15:33:39;19.77;;;11.53;;
35891;SDS011;21993;42.672;23.296;2023-01-15T15:36:06;19.23;;;12.63;;
35891;SDS011;21993;42.672;23.296;2023-01-15T15:38:32;22.37;;;10.53;;
35891;SDS011;21993;42.672;23.296;2023-01-15T15:40:59;23.30;;;11.67;;
35891;SDS011;21993;42.672;23.296;2023-01-15T15:43:38;19.70;;;10.13;;
35891;SDS011;21993;42.672;23.296;2023-01-15T15:46:34;27.50;;;10.07;;
35891;SDS011;21993;42.672;23.296;2023-01-15T15:49:18;23.80;;;10.70;;
35891;SDS011;21993;42.672;23.296;2023-01-15T15:59:22;25.23;;;10.67;;
35891;SDS011;21993;42.672;23.296;2023-01-15T16:01:50;23.97;;;10.90;;
35891;SDS011;21993;42.672;23.296;2023-01-15T16:04:16;31.60;;;13.50;;
35891;SDS011;21993;42.672;23.296;2023-01-15T16:06:43;27.83;;;12.73;;
35891;SDS011;21993;42.672;23.296;2023-01-15T16:09:09;31.67;;;13.47;;
35891;SDS011;21993;42.672;23.296;2023-01-15T16:11:34;28.77;;;13.27;;
35891;SDS011;21993;42.672;23.296;2023-01-15T16:14:02;29.90;;;14.73;;
35891;SDS011;21993;42.672;23.296;2023-01-15T16:16:30;24.57;;;11.93;;
35891;SDS011;21993;42.672;23.296;2023-01-15T16:18:57;28.47;;;12.37;;
35891;SDS011;21993;42.672;23.296;2023-01-15T16:23:56;23.33;;;12.03;;
35891;SDS011;21993;42.672;23.296;2023-01-15T16:29:05;26.43;;;12.47;;
35891;SDS011;21993;42.672;23.296;2023-01-15T16:31:42;33.37;;;16.37;;
35891;SDS011;21993;42.672;23.296;2023-01-15T16:34:10;26.70;;;13.50;;
35891;SDS011;21993;42.672;23.296;2023-01-15T16:36:43;22.83;;;12.90;;
35891;SDS011;21993;42.672;23.296;2023-01-15T16:39:16;32.03;;;15.50;;
35891;SDS011;21993;42.672;23.296;2023-01-15T16:41:49;29.10;;;13.13;;
35891;SDS011;21993;42.672;23.296;2023-01-15T16:49:48;20.07;;;12.33;;
35891;SDS011;21993;42.672;23.296;2023-01-15T16:55:00;24.97;;;13.10;;
35891;SDS011;21993;42.672;23.296;2023-01-15T16:57:30;24.53;;;14.40;;
35891;SDS011;21993;42.672;23.296;2023-01-15T17:00:04;36.83;;;17.73;;
35891;SDS011;21993;42.672;23.296;2023-01-15T17:02:33;43.03;;;18.93;;
35891;SDS011;21993;42.672;23.296;2023-01-15T17:05:13;42.50;;;18.07;;
35891;SDS011;21993;42.672;23.296;2023-01-15T17:07:41;33.20;;;18.23;;
35891;SDS011;21993;42.672;23.296;2023-01-15T17:10:19;35.37;;;17.20;;
35891;SDS011;21993;42.672;23.296;2023-01-15T17:12:47;32.90;;;16.27;;
35891;SDS011;21993;42.672;23.296;2023-01-15T17:17:38;34.47;;;17.80;;
35891;SDS011;21993;42.672;23.296;2023-01-15T17:20:04;28.63;;;15.50;;
35891;SDS011;21993;42.672;23.296;2023-01-15T17:22:31;33.57;;;17.90;;
35891;SDS011;21993;42.672;23.296;2023-01-15T17:24:58;28.33;;;17.67;;
35891;SDS011;21993;42.672;23.296;2023-01-15T17:27:25;38.67;;;18.57;;
35891;SDS011;21993;42.672;23.296;2023-01-15T17:29:52;35.33;;;18.93;;
35891;SDS011;21993;42.672;23.296;2023-01-15T17:32:29;46.17;;;21.33;;
35891;SDS011;21993;42.672;23.296;2023-01-15T17:34:56;42.33;;;20.30;;